Nicolò De Angelis

Olheiro-Chefe - Spezia
3 Fev 2028
Quinta-feira
Processo

Personalidade

Adaptabilidade (1) Ambição (19) Controvérsia (1) Lealdade (18) Pressão (6) Profissionalismo (4) Espírito Esportivo (13) Temperamento (8)

Perfil

Estilo de Treinamento Democrático
Licença Continental Pro
Determinação 10
Gestão de Pessoas 5
Motivação 12
Disciplina 8
Satisfação no Trabalho
100%
Fadiga
0%
Função Olheiro-Chefe
Salário 59.6K p/s
Contrato 14.03.2030

Desempenho

Comportamento Bom
Eficácia do Treinamento
31%
Desenvolvimento do Jogador
55%
Prevenção de Lesões
25%
Implementação Tática
20%

Eventos Recentes

Participou de uma reunião de recrutamento agora
Participou de uma reunião de recrutamento agora
Recomendou um alvo de transferência agora
Recomendou um alvo de transferência agora
Recomendou um alvo de transferência 7d atrás
Recomendou um alvo de transferência 7d atrás
Apresentou um dossiê à direção 7d atrás
Apresentou um dossiê à direção 7d atrás

Monitorando agora

219
Jogador Clube Status Habilidade Confiança Observado Última observação Último voto
Simone D'Uffizi Ascoli Negociando 115 / 102 76% 1 31.01.2028 Aprovar
Juan Rocca Gimnasia y Tiro Perdido 118 / 107 40% 1 24.01.2028 -
Jhonatan Candia Barracas Central Perdido 119 / 127 40% 1 24.01.2028 -
Jérémy Le Douaron Palermo Perdido 128 / 129 40% 1 24.01.2028 -
Sascha Britschgi Padova Ativo 120 / 128 40% 7 22.01.2028 -
Daniel Banjaqui Benfica Ativo 118 / 125 40% 2 22.01.2028 -
Claudio Martey Pianese Ativo 85 / 82 40% 1 22.01.2028 -
Lewis Morgan SuperSport United Perdido 125 / 140 40% 1 10.01.2028 -
Yegor Kortsov Dinamo Brest Ativo 115 / 105 40% 1 10.01.2028 -
Lucas Camejo River Plate Ativo 82 / 87 40% 3 05.01.2028 -
Nicolas Sport Recife Ativo 111 / 102 40% 2 05.01.2028 -
Ángel Aguayo Sol de America Ativo 98 / 108 40% 1 05.01.2028 -
Mao Hosoya Everton Negociando 134 / 135 67% 1 01.01.2028 Aprovar
Santiago Hezze Chaves Ativo 132 / 133 62% 1 01.01.2028 Aprovar
Jefry Zapata Danubio Perdido 118 / 118 67% 1 01.01.2028 Aprovar
Juan Morán Godoy Cruz Ativo 111 / 105 40% 2 31.12.2027 -
Avery Appiah Ajax Ativo 120 / 115 40% 1 31.12.2027 -
Jovan Milosavljević Kalmar FF Ativo 108 / 116 40% 1 27.12.2027 -
Mauro Carrizo Atlético Tucumán Ativo 102 / 114 40% 5 26.12.2027 -
Jayden Joseph Bradford City Ativo 92 / 94 40% 1 26.12.2027 -
Niccolò Fortini Fiorentina Ativo 134 / 137 40% 3 25.12.2027 -
Hosea Michael Remo Stars Ativo 92 / 82 40% 5 25.12.2027 -
Adam Boufandar Siracusa Ativo 96 / 104 40% 1 25.12.2027 -
Jofre Torrents Ajax Ativo 134 / 128 40% 6 24.12.2027 -
Mikkel Hope Haugesund Ativo 107 / 118 40% 4 24.12.2027 -
Jhon Cortez Barranquilla Ativo 81 / 92 40% 2 24.12.2027 -
Tobias Moi Bodo/Glimt Ativo 102 / 126 40% 3 23.12.2027 -
Nejc Viher NK Maribor Ativo 106 / 116 40% 1 23.12.2027 -
Olaniyi Saheed Kwara United Ativo 105 / 103 40% 2 20.12.2027 -
Leonardo Mendicino Bari Ativo 119 / 135 40% 1 20.12.2027 -
Rivaldo Grobler Free State Stars Ativo 103 / 101 40% 2 19.12.2027 -
Tobias Slotsager Casertana Ativo 117 / 117 40% 3 17.12.2027 -
Tiago Parente Benfica Ativo 111 / 122 40% 4 16.12.2027 -
Hervin Goyes Deportivo Pasto Ativo 112 / 111 40% 6 16.12.2027 -
Tyson Pearce St. Louis CITY SC Ativo 94 / 108 40% 5 15.12.2027 -
Cristian Guzmán Universitario Popayan Ativo 91 / 90 40% 1 15.12.2027 -
Darryl Bakola Padova Ativo 116 / 120 40% 6 14.12.2027 -
Aiden Hezarkhani Real Salt Lake Ativo 93 / 91 40% 1 14.12.2027 -
Gift Udoh Ikorodu City Ativo 98 / 78 40% 7 13.12.2027 -
Juan Camilo Córdoba Deportivo Pereira Ativo 84 / 98 40% 4 13.12.2027 -
Miguel Figueiredo Cesena Ativo 117 / 118 40% 1 12.12.2027 -
Jorthy Mokio ADO Den Haag Ativo 134 / 131 40% 1 12.12.2027 -
Felipe Obradovich Ferro Carril Oeste Ativo 111 / 115 40% 1 11.12.2027 -
Aleko Basiladze Slovan Liberec Ativo 104 / 112 40% 1 11.12.2027 -
Eduardo Felicíssimo Sporting CP Ativo 116 / 129 40% 1 09.12.2027 -
Harrison Armstrong Everton Ativo 138 / 140 40% 1 09.12.2027 -
Theodor Lundbergh Malmo FF Ativo 92 / 100 40% 3 08.12.2027 -
Narcis Ilaş CFR Cluj Ativo 103 / 113 40% 3 07.12.2027 -
Gonçalo Oliveira Benfica Ativo 111 / 121 40% 2 06.12.2027 -
Dmitry Pestryakov Dinamo Moscow Ativo 118 / 120 40% 4 06.12.2027 -
Colin Guske Orlando City Ativo 94 / 108 40% 2 05.12.2027 -
Joel Ezra Enyimba Ativo 104 / 88 40% 2 03.12.2027 -
Davide Bartesaghi AC Milan Ativo 138 / 133 40% 1 03.12.2027 -
Tiago Gordillo San Miguel Ativo 81 / 100 40% 3 02.12.2027 -
Eddy Kouadio Crotone Ativo 106 / 113 40% 2 01.12.2027 -
Andrea Cogoni Cosenza Ativo 104 / 121 40% 1 01.12.2027 -
Alejandro Almaraz Nueva Chicago Ativo 105 / 112 40% 3 25.11.2027 -
Rufai Mohammed IF Elfsborg Ativo 115 / 112 40% 1 24.11.2027 -
Mattia Puzone Siracusa Ativo 99 / 110 40% 2 23.11.2027 -
Harbor Miller LA Galaxy Ativo 94 / 96 40% 2 23.11.2027 -
Sam Curtis Cambridge United Ativo 102 / 105 40% 2 22.11.2027 -
Diego Vargas San Marcos de Arica Ativo 95 / 94 40% 2 21.11.2027 -
Matteo Milan Cheltenham Town Ativo 91 / 89 40% 2 21.11.2027 -
Celías Ingenthron Vélez Ativo 114 / 129 40% 2 18.11.2027 -
Emiliano Bértoli Patronato Ativo 95 / 91 40% 1 14.11.2027 -
Samuel Posada Leones Ativo 91 / 89 40% 5 11.11.2027 -
Fillip Jenssen Riise Stabaek Ativo 90 / 103 40% 5 09.11.2027 -
Nazareno Roselli Defensa y Justicia Ativo 114 / 115 40% 1 08.11.2027 -
Somtochuwku Ezenabo Kwara United Ativo 80 / 93 40% 1 05.11.2027 -
Alessandro Capello Arezzo Ativo 116 / 116 42% 1 / 1m 03.11.2027 -
João Costa Arezzo Ativo 85 / 88 30% 1 / 1m 03.11.2027 -
Mattia Damiani Arezzo Ativo 111 / 114 30% 1 / 1m 03.11.2027 -
Frankie Westfield Philadelphia Union Ativo 108 / 116 40% 1 02.11.2027 -
Matías Gómez Granada Ativo 124 / 134 40% 1 29.10.2027 -
Juan Giménez Celta Ativo 121 / 127 40% 1 26.10.2027 -
Kwesi Sorotu Badori Berekum Chelsea Ativo 86 / 118 40% 1 22.10.2027 -
Víctor Reyes Deportes Tolima Ativo 89 / 106 40% 1 20.10.2027 -
Dominik Chong Qui Atlanta United FC Ativo 93 / 92 40% 2 19.10.2027 -
David Odogu AC Milan Ativo 135 / 130 40% 1 14.10.2027 -
Mohamed Bolivar Barranquilla Ativo 84 / 103 40% 1 14.10.2027 -
Ignacio Fernández Boston River Ativo 88 / 108 40% 2 12.10.2027 -
Uche Jaguar Kwara United Ativo 88 / 91 40% 1 12.10.2027 -
José Correa Deportivo Tachira Ativo 89 / 101 40% 1 12.10.2027 -
Kelechi Onwe Ikorodu City Ativo 94 / 90 40% 1 11.10.2027 -
Christ Inao Oulaï Fiorentina Ativo 140 / 153 40% 1 11.10.2027 -
Chibueze Oputa Rangers International Ativo 83 / 107 40% 1 09.10.2027 -
Álvaro Navoni Tigre Ativo 89 / 93 40% 1 09.10.2027 -
Julián Bazán Philadelphia Union Ativo 117 / 122 40% 1 08.10.2027 -
Agustín Obregón River Plate Ativo 106 / 111 40% 1 08.10.2027 -
Daniel Gomez Valledupar Ativo 92 / 86 40% 1 23.08.2027 -
Martin Georgiev Aris Thessaloniki Ativo 117 / 130 40% 1 23.08.2027 -
Zane Albarus Cambridge United Ativo 96 / 113 40% 2 09.08.2027 -
Veljko Milosavljević Aston Villa Ativo 143 / 151 40% 1 09.08.2027 -
Riley Owen Trento Ativo 105 / 104 40% 1 05.07.2027 -
Andrea Bertoncini Carpi Ativo 97 / 91 40% 1 05.07.2027 -
Dion Beljo Standard Liege Perdido 131 / 132 66% 1 01.06.2027 Aprovar
Percy Jali Free State Stars Ativo 102 / 111 40% 1 06.02.2027 -
Matvey Kislyak CSKA Moscow Ativo 141 / 153 40% 1 06.02.2027 -
Raymond Agyemang Aduana Stars Ativo 73 / 92 40% 1 04.02.2027 -
Pietro Reggiori Pro Patria Ativo 97 / 100 40% 1 04.02.2027 -
Tsvetoslav Marinov Spartak 1918 Ativo 95 / 85 40% 1 02.02.2027 -
Josh King Chelsea Ativo 139 / 141 40% 1 01.02.2027 -
Matteo Rover Reggiana Perdido 125 / 115 40% 2 11.01.2027 -
Marcelo Allende Mamelodi Sundowns Ativo 141 / 126 40% 1 11.01.2027 -
Antoine Bernede Hellas Verona Ativo 124 / 133 40% 1 11.01.2027 -
Tijjani Noslin Lazio Ativo 142 / 145 40% 3 30.12.2026 -
Bongani Mothiba SuperSport United Ativo 73 / 80 40% 2 30.12.2026 -
Tamerlan Musaev CSKA Moscow Perdido 126 / 130 40% 1 30.12.2026 -
Papa Ndiaga Yade Oleksandriya Ativo 101 / 110 40% 1 29.12.2026 -
José Martínes CSKA 1948 Ativo 110 / 94 40% 1 28.12.2026 -
Jacopo Desogus AlbinoLeffe Ativo 108 / 105 40% 1 28.12.2026 -
Danylo Kravchuk LNZ Ativo 90 / 93 40% 1 28.12.2026 -
Jens Odgaard Bologna Ativo 132 / 144 40% 9 27.12.2026 Observar
Konan N'Dri Lecce Ativo 131 / 120 40% 2 25.12.2026 -
David Romero Parma Ativo 124 / 136 40% 2 25.12.2026 -
Lucas Da Cunha Como Ativo 142 / 140 40% 1 25.12.2026 -
Nicolò Cambiaghi Bologna Ativo 147 / 142 40% 1 24.12.2026 -
Lorenzo Ignacchiti Empoli Ativo 113 / 121 40% 1 24.12.2026 -
Evidence Makgopa Orlando Pirates Ativo 105 / 123 40% 3 23.12.2026 -
Ruben van Bommel Ferencvaros Ativo 130 / 142 40% 3 20.12.2026 -
Mduduzi Shabalala Kaizer Chiefs Ativo 117 / 119 40% 2 20.12.2026 -
Emanuele Schimmenti Potenza Ativo 116 / 117 40% 1 20.12.2026 -
Kenan Dervišagić Floriana Ativo 108 / 102 40% 1 20.12.2026 -
Romano Schmid Frosinone Ativo 145 / 142 40% 3 16.12.2026 -
Nadir Zortea Bologna Ativo 132 / 130 40% 2 16.12.2026 -
Rômulo RB Leipzig Ativo 139 / 141 40% 2 16.12.2026 -
Nicolás Cordero Aldosivi Perdido 126 / 125 40% 2 14.12.2026 -
Ammar Ramadan DAC Dunajska Streda Perdido 127 / 113 40% 2 14.12.2026 -
Alessio Zerbin Frosinone Ativo 135 / 122 40% 3 14.12.2026 -
Tommaso Pobega Bologna Ativo 142 / 143 40% 1 13.12.2026 -
Oswin Appollis Orlando Pirates Ativo 112 / 119 40% 1 10.12.2026 -
Cristian Shpendi Cesena Ativo 131 / 139 40% 1 10.12.2026 -
Amin Sarr Hellas Verona Ativo 125 / 131 40% 2 05.12.2026 -
Raoul Bellanova Atalanta Ativo 147 / 152 40% 2 04.12.2026 -
Eren Aydın Zira Ativo 115 / 115 40% 2 04.12.2026 -
Milán Tóth Vasas Ativo 97 / 113 40% 1 02.12.2026 -
Camillo Tavernelli Arezzo Ativo 122 / 108 40% 1 02.12.2026 -
Jacques Siwe Rubin Ativo 124 / 101 40% 1 01.12.2026 -
Etiosa Ighodaro Kaizer Chiefs Ativo 118 / 120 40% 1 01.12.2026 -
Willem Geubbels Lecce Ativo 133 / 119 40% 1 01.12.2026 -
Bamba Dieng Crvena Zvezda Ativo 125 / 135 40% 3 29.11.2026 -
Kwame Opoku Asante Kotoko Ativo 104 / 99 40% 1 29.11.2026 -
Youssoufa Moukoko FC Copenhagen Ativo 119 / 129 40% 2 28.11.2026 -
Stiven Shpendi Empoli Ativo 117 / 124 40% 1 28.11.2026 -
Juan Manuel Boselli Krasnodar Ativo 133 / 106 40% 2 27.11.2026 -
Bénie Traoré New York City Ativo 120 / 122 40% 4 26.11.2026 -
Sead Hakšabanović Malmo FF Ativo 134 / 133 40% 3 26.11.2026 -
Gianluca Contini Siracusa Ativo 96 / 107 40% 1 25.11.2026 -
Berna CSKA 1948 Ativo 113 / 112 40% 1 25.11.2026 -
Bernat Guiu Virtus Entella Ativo 118 / 107 40% 1 25.11.2026 -
Luciano Gondou CSKA Moscow Ativo 128 / 135 40% 1 24.11.2026 -
Emanuele Pecorino Catanzaro Ativo 102 / 100 40% 1 24.11.2026 -
Petar Stanić Ludogorets Ativo 126 / 119 40% 2 22.11.2026 -
Santiago Pierotti Lecce Ativo 124 / 130 40% 2 22.11.2026 -
Tshepang Moremi Orlando Pirates Ativo 122 / 113 40% 1 22.11.2026 -
Juan Miranda Bologna Ativo 148 / 130 40% 1 22.11.2026 -
Diego García Malmo FF Ativo 118 / 110 40% 1 22.11.2026 -
Fiete Arp OB Ativo 119 / 137 40% 2 20.11.2026 -
Pablo Rodríguez Lech Ativo 136 / 119 40% 1 17.11.2026 -
David Miculescu FCSB Ativo 120 / 103 40% 2 16.11.2026 -
Mandla Mahlangu Ajax Cape Town Ativo 116 / 91 40% 4 15.11.2026 -
Sota Kitano Luzern Ativo 126 / 117 40% 1 14.11.2026 -
Ibrahim Adel FC Nordsjaelland Ativo 130 / 126 40% 1 14.11.2026 -
Kévin Denkey FC Cincinnati Ativo 123 / 125 40% 1 13.11.2026 -
Rilind Nivokazi Sion Ativo 124 / 110 40% 1 10.11.2026 -
Ramiro Ruiz Rodríguez Atlético Tucumán Ativo 119 / 114 40% 1 10.11.2026 -
Themba Ngcobo SuperSport United Ativo 129 / 128 40% 3 09.11.2026 -
Max Fenger IFK Goteborg Ativo 129 / 113 40% 2 07.11.2026 -
Emanuele Valeri Parma Ativo 127 / 139 40% 1 07.11.2026 -
Leonardo Campana New England Revolution Ativo 132 / 121 40% 1 03.11.2026 -
Peter Christiansen Viking Ativo 112 / 110 40% 1 03.11.2026 -
Giacomo Raspadori Atalanta Ativo 150 / 134 40% 3 02.11.2026 -
Christian Krasnodar Ativo 136 / 135 40% 2 31.10.2026 -
Agustín Módica Gimnasia y Esgrima Ativo 113 / 113 40% 1 28.10.2026 -
Alexander Aravena Portland Timbers Ativo 122 / 123 40% 2 27.10.2026 -
Aleksa Terzić Frosinone Ativo 133 / 121 40% 1 26.10.2026 -
Georginio Rutter Brighton Ativo 146 / 151 40% 3 23.10.2026 -
Tomás González Piast Ativo 106 / 131 40% 1 23.10.2026 -
Ilyas Ansah Hull City Ativo 132 / 131 40% 1 22.10.2026 -
Jesus Ferreira Seattle Sounders Ativo 126 / 123 40% 1 19.10.2026 -
Xavi Simons Tottenham Ativo 158 / 164 40% 1 16.10.2026 -
Andri Guðjohnsen Blackburn Rovers Ativo 125 / 121 40% 1 16.10.2026 -
Luis Vázquez Birmingham Ativo 132 / 127 40% 1 15.10.2026 -
Adnan Courtois KV Oostende Ativo 139 / 125 40% 2 14.10.2026 -
Mattia Felici Cagliari Ativo 130 / 125 40% 2 11.10.2026 -
Joe Gelhardt Hull City Ativo 123 / 128 40% 2 11.10.2026 -
Tommy Conway Middlesbrough Ativo 124 / 122 40% 1 11.10.2026 -
Rômulo Tigres Ativo 129 / 121 40% 1 10.10.2026 -
Max Bird Birmingham Ativo 132 / 127 40% 1 10.10.2026 -
Telasco Segovia Inter Miami CF Ativo 137 / 126 40% 1 10.10.2026 -
Dávid Strelec Middlesbrough Ativo 134 / 146 40% 1 09.10.2026 -
Agustín Paz Progreso Ativo 115 / 117 40% 2 05.10.2026 -
August Priske Birmingham Ativo 127 / 122 40% 1 05.10.2026 -
Rafael Navarro St. Louis CITY SC Ativo 119 / 126 40% 2 02.10.2026 -
Luca Martínez Dupuy Godoy Cruz Ativo 119 / 128 40% 1 02.10.2026 -
Cheikh Sabaly Vancouver Whitecaps Ativo 130 / 126 40% 2 29.09.2026 -
Richard Koné Queens Park Rangers Ativo 116 / 127 40% 1 27.09.2026 -
Lorent Tolaj Plymouth Argyle Ativo 112 / 127 40% 2 26.09.2026 -
Dom Ballard Leyton Orient Ativo 122 / 128 40% 1 26.09.2026 -
Dejan Joveljić Seattle Sounders Ativo 128 / 126 40% 3 24.09.2026 -
Alexander Díaz Deportivo Riestra Ativo 116 / 109 40% 1 24.09.2026 -
Agustín Anello Philadelphia Union Ativo 130 / 116 40% 1 24.09.2026 -
Facundo Mura Inter Miami CF Ativo 130 / 128 40% 2 23.09.2026 -
Lukas Nmecha Leeds United Ativo 127 / 122 40% 1 23.09.2026 -
Alexis Cuello San Lorenzo Ativo 118 / 126 40% 1 20.09.2026 -
Dwight McNeil Crystal Palace Ativo 132 / 144 40% 1 18.09.2026 -
Tyrese Campbell Sheffield United Ativo 118 / 120 40% 1 18.09.2026 -
Louis Munteanu DC United Ativo 129 / 115 40% 2 17.09.2026 -
Matías Fernández Independiente Rivadavia Ativo 125 / 115 40% 1 17.09.2026 -
Wessam Abou Ali Columbus Crew Ativo 137 / 132 40% 1 15.09.2026 -
Antony Portland Timbers Ativo 130 / 123 40% 1 15.09.2026 -
Mateo Zuleta Once Caldas Ativo 124 / 127 40% 1 15.09.2026 -
Misael Sosa Godoy Cruz Ativo 117 / 115 40% 1 12.09.2026 -
João Klauss LA Galaxy Ativo 129 / 120 40% 1 17.08.2026 -
El Hadji Malick Diouf Brentford Ativo 138 / 145 40% 1 07.08.2026 -
Aaron Hickey Brentford Ativo 141 / 148 40% 1 07.08.2026 -
Cody Gakpo Liverpool Ativo 156 / 159 40% 1 07.08.2026 -
Nahuel Molina AS Roma Ativo 150 / 145 40% 1 02.08.2026 -
Sergio Reguilón Inter Miami CF Ativo 141 / 135 40% 1 02.08.2026 -